createdAt,value
2023-01-17T00:00:16.419Z,3.92
2023-01-17T00:01:16.956Z,3.90
2023-01-17T00:02:16.533Z,3.92
2023-01-17T00:03:17.153Z,3.93
2023-01-17T00:04:16.636Z,3.93
2023-01-17T00:05:17.141Z,3.92
2023-01-17T00:06:16.687Z,3.90
2023-01-17T00:07:17.224Z,3.90
2023-01-17T00:08:16.710Z,3.89
2023-01-17T00:09:17.254Z,3.88
2023-01-17T00:10:16.750Z,3.90
2023-01-17T00:11:17.220Z,3.86
2023-01-17T00:12:17.295Z,3.88
2023-01-17T00:13:16.841Z,3.88
2023-01-17T00:14:16.352Z,3.86
2023-01-17T00:15:16.850Z,3.88
2023-01-17T00:16:16.380Z,3.88
2023-01-17T00:17:16.970Z,3.90
2023-01-17T00:18:16.466Z,3.90
2023-01-17T00:19:16.977Z,3.86
2023-01-17T00:20:18.142Z,3.86
2023-01-17T00:21:16.643Z,3.88
2023-01-17T00:22:16.367Z,3.86
2023-01-17T00:23:16.866Z,3.82
2023-01-17T00:24:16.346Z,3.83
2023-01-17T00:25:16.882Z,3.83
2023-01-17T00:26:16.383Z,3.82
2023-01-17T00:27:16.858Z,3.83
2023-01-17T00:28:16.417Z,3.82
2023-01-17T00:29:16.976Z,3.81
2023-01-17T00:30:16.500Z,3.81
2023-01-17T00:31:17.099Z,3.78
2023-01-17T00:32:16.909Z,3.78
2023-01-17T00:33:16.429Z,3.79
2023-01-17T00:34:16.921Z,3.77
2023-01-17T00:35:16.430Z,3.77
2023-01-17T00:36:16.929Z,3.75
2023-01-17T00:37:16.423Z,3.75
2023-01-17T00:38:16.916Z,3.74
2023-01-17T00:39:16.435Z,3.82
2023-01-17T00:40:16.963Z,3.78
2023-01-17T00:41:16.491Z,3.78
2023-01-17T00:42:16.894Z,3.74
2023-01-17T00:43:16.400Z,3.71
2023-01-17T00:44:16.934Z,3.74
2023-01-17T00:45:16.452Z,3.72
2023-01-17T00:46:17.003Z,3.72
2023-01-17T00:47:16.574Z,3.69
2023-01-17T00:48:17.094Z,3.72
2023-01-17T00:49:16.576Z,3.69
2023-01-17T00:50:17.096Z,3.71
2023-01-17T00:51:16.578Z,3.72
2023-01-17T00:52:16.989Z,3.74
2023-01-17T00:53:16.507Z,3.71
2023-01-17T00:54:18.884Z,3.71
2023-01-17T00:55:16.500Z,3.72
2023-01-17T00:56:17.017Z,3.72
2023-01-17T00:57:16.522Z,3.77
2023-01-17T00:58:17.017Z,3.77
2023-01-17T00:59:16.513Z,3.78
2023-01-17T01:00:17.026Z,3.77
2023-01-17T01:01:16.642Z,3.75
2023-01-17T01:02:17.014Z,3.79
2023-01-17T01:03:16.587Z,3.79
2023-01-17T01:04:17.098Z,3.77
2023-01-17T01:05:16.563Z,3.75
2023-01-17T01:06:17.069Z,3.68
2023-01-17T01:07:16.650Z,3.77
2023-01-17T01:08:17.176Z,3.82
2023-01-17T01:09:16.699Z,3.81
2023-01-17T01:10:17.237Z,3.74
2023-01-17T01:11:16.750Z,3.72
2023-01-17T01:12:17.285Z,3.68
2023-01-17T01:13:16.780Z,3.67
2023-01-17T01:14:17.280Z,3.65
2023-01-17T01:15:16.790Z,3.72
2023-01-17T01:16:17.341Z,3.69
2023-01-17T01:17:16.926Z,3.67
2023-01-17T01:18:16.422Z,3.64
2023-01-17T01:19:17.739Z,3.68
2023-01-17T01:20:17.249Z,3.65
2023-01-17T01:21:16.785Z,3.65
2023-01-17T01:22:17.180Z,3.61
2023-01-17T01:23:16.675Z,3.64
2023-01-17T01:24:17.176Z,3.65
2023-01-17T01:25:16.730Z,3.65
2023-01-17T01:26:17.231Z,3.64
2023-01-17T01:27:16.744Z,3.62
2023-01-17T01:28:17.248Z,3.61
2023-01-17T01:29:16.797Z,3.62
2023-01-17T01:30:16.317Z,3.61
2023-01-17T01:31:16.855Z,3.60
2023-01-17T01:32:17.174Z,3.58
2023-01-17T01:33:16.693Z,3.55
2023-01-17T01:34:17.195Z,3.55
2023-01-17T01:35:16.769Z,3.55
2023-01-17T01:36:17.306Z,3.53
2023-01-17T01:37:16.794Z,3.50
2023-01-17T01:38:17.343Z,3.53
2023-01-17T01:39:16.967Z,3.50
2023-01-17T01:40:16.451Z,3.53
2023-01-17T01:41:16.926Z,3.51
2023-01-17T01:42:16.535Z,3.50
2023-01-17T01:43:17.078Z,3.53
2023-01-17T01:44:16.546Z,3.50
2023-01-17T01:45:17.067Z,3.50
2023-01-17T01:46:16.576Z,3.50
2023-01-17T01:47:17.091Z,3.51
2023-01-17T01:48:16.618Z,3.50
2023-01-17T01:49:17.107Z,3.50
2023-01-17T01:50:16.645Z,3.50
2023-01-17T01:51:17.136Z,3.51
2023-01-17T01:52:17.291Z,3.51
2023-01-17T01:53:16.958Z,3.49
2023-01-17T01:54:16.450Z,3.47
2023-01-17T01:55:16.951Z,3.54
2023-01-17T01:56:16.486Z,3.55
2023-01-17T01:57:17.009Z,3.53
2023-01-17T01:58:16.546Z,3.54
2023-01-17T01:59:17.031Z,3.57
2023-01-17T02:00:16.546Z,3.60
2023-01-17T02:01:17.058Z,3.58
2023-01-17T02:02:16.350Z,3.58
2023-01-17T02:03:16.875Z,3.57
2023-01-17T02:04:16.382Z,3.51
2023-01-17T02:05:16.899Z,3.54
2023-01-17T02:06:16.422Z,3.57
2023-01-17T02:07:16.918Z,3.54
2023-01-17T02:08:16.456Z,3.55
2023-01-17T02:09:16.969Z,3.55
2023-01-17T02:10:16.467Z,3.55
2023-01-17T02:11:16.968Z,3.57
2023-01-17T02:12:16.482Z,3.55
2023-01-17T02:13:17.026Z,3.51
2023-01-17T02:14:16.514Z,3.53
2023-01-17T02:15:17.020Z,3.51
2023-01-17T02:16:16.540Z,3.51
2023-01-17T02:17:17.102Z,3.51
2023-01-17T02:18:16.641Z,3.53
2023-01-17T02:19:17.208Z,3.49
2023-01-17T02:20:16.742Z,3.49
2023-01-17T02:21:17.247Z,3.49
2023-01-17T02:22:16.451Z,3.47
2023-01-17T02:23:16.937Z,3.47
2023-01-17T02:24:16.426Z,3.47
2023-01-17T02:25:16.933Z,3.47
2023-01-17T02:26:16.445Z,3.44
2023-01-17T02:27:16.944Z,3.44
2023-01-17T02:28:16.443Z,3.44
2023-01-17T02:29:16.939Z,3.44
2023-01-17T02:30:16.460Z,3.44
2023-01-17T02:31:17.031Z,3.44
2023-01-17T02:32:16.452Z,3.46
2023-01-17T02:33:16.938Z,3.43
2023-01-17T02:34:16.424Z,3.43
2023-01-17T02:35:16.925Z,3.44
2023-01-17T02:36:16.438Z,3.44
2023-01-17T02:37:16.942Z,3.43
2023-01-17T02:38:16.422Z,3.43
2023-01-17T02:39:16.940Z,3.43
2023-01-17T02:40:16.474Z,3.41
2023-01-17T02:41:16.981Z,3.40
2023-01-17T02:42:16.450Z,3.39
2023-01-17T02:43:16.937Z,3.41
2023-01-17T02:44:16.439Z,3.40
2023-01-17T02:45:16.957Z,3.40
2023-01-17T02:46:16.466Z,3.40
2023-01-17T02:47:16.974Z,3.41
2023-01-17T02:48:16.461Z,3.40
2023-01-17T02:49:16.946Z,3.39
2023-01-17T02:50:16.439Z,3.39
2023-01-17T02:51:16.938Z,3.36
2023-01-17T02:52:17.232Z,3.36
2023-01-17T02:53:16.717Z,3.33
2023-01-17T02:54:17.232Z,3.36
2023-01-17T02:55:16.748Z,3.33
2023-01-17T02:56:17.296Z,3.31
2023-01-17T02:57:16.773Z,3.30
2023-01-17T02:58:17.275Z,3.30
2023-01-17T02:59:16.799Z,3.28
2023-01-17T03:00:17.476Z,3.30
2023-01-17T03:01:17.044Z,3.30
2023-01-17T03:02:16.844Z,3.30
2023-01-17T03:03:16.602Z,3.27
2023-01-17T03:04:17.107Z,3.24
2023-01-17T03:05:16.859Z,3.22
2023-01-17T03:06:16.603Z,3.20
2023-01-17T03:07:17.131Z,3.15
2023-01-17T03:08:16.630Z,3.16
2023-01-17T03:09:17.152Z,3.15
2023-01-17T03:10:16.657Z,3.10
2023-01-17T03:11:17.311Z,3.09
2023-01-17T03:12:16.580Z,3.09
2023-01-17T03:13:17.127Z,3.12
2023-01-17T03:14:16.643Z,3.09
2023-01-17T03:15:17.253Z,3.10
2023-01-17T03:16:16.843Z,3.09
2023-01-17T03:17:16.419Z,3.06
2023-01-17T03:18:16.905Z,3.05
2023-01-17T03:19:16.435Z,3.05
2023-01-17T03:20:16.954Z,3.02
2023-01-17T03:21:16.440Z,3.05
2023-01-17T03:22:16.971Z,3.03
2023-01-17T03:23:16.512Z,3.07
2023-01-17T03:24:17.031Z,3.06
2023-01-17T03:25:16.555Z,3.03
2023-01-17T03:26:17.045Z,3.05
2023-01-17T03:27:16.551Z,3.05
2023-01-17T03:28:17.063Z,3.06
2023-01-17T03:29:16.584Z,3.03
2023-01-17T03:30:17.130Z,3.03
2023-01-17T03:31:16.606Z,3.03
2023-01-17T03:32:16.822Z,3.02
2023-01-17T03:33:16.301Z,2.96
2023-01-17T03:34:16.838Z,3.02
2023-01-17T03:35:16.347Z,3.00
2023-01-17T03:36:16.820Z,3.00
2023-01-17T03:37:16.343Z,2.99
2023-01-17T03:38:16.853Z,2.98
2023-01-17T03:39:16.385Z,2.96
2023-01-17T03:40:16.881Z,2.99
2023-01-17T03:41:16.379Z,2.96
2023-01-17T03:42:16.884Z,2.98
2023-01-17T03:43:16.384Z,2.98
2023-01-17T03:44:16.866Z,2.98
2023-01-17T03:45:16.401Z,2.96
2023-01-17T03:46:16.873Z,2.96
2023-01-17T03:47:16.371Z,2.94
2023-01-17T03:48:16.863Z,2.94
2023-01-17T03:49:16.395Z,2.92
2023-01-17T03:50:16.886Z,2.91
2023-01-17T03:51:16.409Z,2.92
2023-01-17T03:52:16.727Z,2.94
2023-01-17T03:53:17.233Z,2.94
2023-01-17T03:54:16.753Z,2.91
2023-01-17T03:55:17.322Z,2.91
2023-01-17T03:56:16.841Z,2.92
2023-01-17T03:57:16.369Z,2.88
2023-01-17T03:58:16.856Z,2.88
2023-01-17T03:59:16.706Z,2.91
2023-01-17T04:00:17.245Z,2.91
2023-01-17T04:01:16.832Z,2.94
2023-01-17T04:02:16.750Z,2.87
2023-01-17T04:03:16.374Z,2.88
2023-01-17T04:04:16.911Z,2.87
2023-01-17T04:05:16.406Z,2.88
2023-01-17T04:06:16.916Z,2.82
2023-01-17T04:07:16.456Z,2.84
2023-01-17T04:08:16.969Z,2.84
2023-01-17T04:09:16.496Z,2.85
2023-01-17T04:10:16.996Z,2.87
2023-01-17T04:11:16.496Z,2.85
2023-01-17T04:12:16.729Z,2.87
2023-01-17T04:13:17.254Z,2.87
2023-01-17T04:14:16.765Z,2.88
2023-01-17T04:15:17.293Z,2.84
2023-01-17T04:16:16.808Z,2.87
2023-01-17T04:17:16.354Z,2.87
2023-01-17T04:18:16.872Z,2.82
2023-01-17T04:19:16.353Z,2.81
2023-01-17T04:20:16.863Z,2.85
2023-01-17T04:21:16.376Z,2.87
2023-01-17T04:22:16.926Z,2.84
2023-01-17T04:23:16.435Z,2.87
2023-01-17T04:24:17.979Z,2.88
2023-01-17T04:25:16.638Z,2.85
2023-01-17T04:26:17.132Z,2.82
2023-01-17T04:27:16.639Z,2.82
2023-01-17T04:28:17.126Z,2.81
2023-01-17T04:29:16.610Z,2.82
2023-01-17T04:30:17.182Z,2.78
2023-01-17T04:31:16.862Z,2.78
2023-01-17T04:32:17.213Z,2.72
2023-01-17T04:33:16.723Z,2.71
2023-01-17T04:34:17.222Z,2.71
2023-01-17T04:35:16.714Z,2.70
2023-01-17T04:36:17.215Z,2.67
2023-01-17T04:37:16.720Z,2.65
2023-01-17T04:38:17.249Z,2.65
2023-01-17T04:39:16.767Z,2.67
2023-01-17T04:40:17.268Z,2.65
2023-01-17T04:41:16.880Z,2.63
2023-01-17T04:42:17.251Z,2.60
2023-01-17T04:43:16.747Z,2.57
2023-01-17T04:44:17.218Z,2.57
2023-01-17T04:45:16.691Z,2.56
2023-01-17T04:46:17.230Z,2.54
2023-01-17T04:47:16.784Z,2.50
2023-01-17T04:48:17.302Z,2.53
2023-01-17T04:49:16.809Z,2.51
2023-01-17T04:50:17.325Z,2.51
2023-01-17T04:51:16.843Z,2.50
2023-01-17T04:52:17.316Z,2.50
2023-01-17T04:53:16.840Z,2.50
2023-01-17T04:54:16.354Z,2.46
2023-01-17T04:55:16.862Z,2.44
2023-01-17T04:56:16.355Z,2.44
2023-01-17T04:57:16.849Z,2.42
2023-01-17T04:58:16.326Z,2.42
2023-01-17T04:59:16.829Z,2.40
2023-01-17T05:00:16.345Z,2.39
2023-01-17T05:01:16.893Z,2.39
2023-01-17T05:02:17.098Z,2.37
2023-01-17T05:03:16.661Z,2.32
2023-01-17T05:04:17.164Z,2.30
2023-01-17T05:05:16.695Z,2.33
2023-01-17T05:06:17.269Z,2.28
2023-01-17T05:07:16.827Z,2.26
2023-01-17T05:08:16.351Z,2.25
2023-01-17T05:09:16.862Z,2.23
2023-01-17T05:10:16.337Z,2.16
2023-01-17T05:11:16.830Z,2.16
2023-01-17T05:12:17.230Z,2.13
2023-01-17T05:13:16.716Z,2.12
2023-01-17T05:14:17.208Z,2.10
2023-01-17T05:15:16.714Z,2.10
2023-01-17T05:16:17.208Z,2.10
2023-01-17T05:17:16.714Z,2.09
2023-01-17T05:18:17.206Z,2.08
2023-01-17T05:19:16.683Z,2.02
2023-01-17T05:20:17.216Z,2.01
2023-01-17T05:21:16.749Z,1.99
2023-01-17T05:22:16.470Z,1.99
2023-01-17T05:23:16.971Z,1.95
2023-01-17T05:24:16.836Z,1.98
2023-01-17T05:25:16.345Z,1.99
2023-01-17T05:26:16.834Z,2.01
2023-01-17T05:27:16.329Z,1.99
2023-01-17T05:28:16.808Z,1.99
2023-01-17T05:29:16.306Z,2.01
2023-01-17T05:30:16.810Z,1.98
2023-01-17T05:31:16.366Z,1.99
2023-01-17T05:32:16.682Z,1.99
2023-01-17T05:33:17.227Z,1.99
2023-01-17T05:34:16.772Z,1.99
2023-01-17T05:35:17.350Z,1.99
2023-01-17T05:36:16.859Z,1.92
2023-01-17T05:37:16.376Z,1.89
2023-01-17T05:38:16.863Z,1.89
2023-01-17T05:39:16.371Z,1.88
2023-01-17T05:40:16.897Z,1.91
2023-01-17T05:41:16.404Z,1.92
2023-01-17T05:42:16.793Z,1.92
2023-01-17T05:43:17.291Z,1.98
2023-01-17T05:44:16.806Z,1.98
2023-01-17T05:45:17.339Z,1.95
2023-01-17T05:46:16.846Z,1.99
2023-01-17T05:47:16.458Z,1.97
2023-01-17T05:48:16.946Z,1.98
2023-01-17T05:49:16.477Z,1.98
2023-01-17T05:50:16.974Z,1.98
2023-01-17T05:51:16.479Z,1.95
2023-01-17T05:52:16.977Z,1.94
2023-01-17T05:53:16.455Z,1.97
2023-01-17T05:54:17.002Z,1.97
2023-01-17T05:55:16.513Z,1.98
2023-01-17T05:56:17.018Z,1.97
2023-01-17T05:57:16.537Z,1.98
2023-01-17T05:58:17.059Z,1.98
2023-01-17T05:59:18.852Z,1.97
2023-01-17T06:00:17.239Z,2.01
2023-01-17T06:01:16.804Z,1.98
2023-01-17T06:02:16.578Z,1.95
2023-01-17T06:03:17.175Z,1.99
2023-01-17T06:04:16.718Z,2.05
2023-01-17T06:05:17.231Z,2.01
2023-01-17T06:06:16.733Z,1.89
2023-01-17T06:07:17.233Z,1.85
2023-01-17T06:08:16.731Z,1.87
2023-01-17T06:09:17.250Z,1.94
2023-01-17T06:10:16.732Z,1.84
2023-01-17T06:11:17.231Z,1.94
2023-01-17T06:12:16.992Z,1.98
2023-01-17T06:13:16.472Z,1.89
2023-01-17T06:14:16.991Z,1.92
2023-01-17T06:15:16.494Z,1.95
2023-01-17T06:16:17.013Z,1.92
2023-01-17T06:17:16.553Z,1.88
2023-01-17T06:18:17.108Z,1.88
2023-01-17T06:19:16.650Z,1.87
2023-01-17T06:20:17.128Z,1.89
2023-01-17T06:21:16.639Z,1.89
2023-01-17T06:22:16.318Z,1.94
2023-01-17T06:23:16.813Z,1.94
2023-01-17T06:24:17.311Z,1.85
2023-01-17T06:25:16.831Z,1.87
2023-01-17T06:26:16.366Z,1.85
2023-01-17T06:27:16.869Z,1.89
2023-01-17T06:28:16.387Z,1.89
2023-01-17T06:29:16.873Z,1.91
2023-01-17T06:30:16.386Z,1.88
2023-01-17T06:31:16.891Z,1.89
2023-01-17T06:32:16.345Z,1.87
2023-01-17T06:33:16.831Z,1.87
2023-01-17T06:34:16.318Z,1.84
2023-01-17T06:35:16.827Z,1.82
2023-01-17T06:36:16.383Z,1.82
2023-01-17T06:37:16.880Z,1.81
2023-01-17T06:38:16.396Z,1.82
2023-01-17T06:39:16.886Z,1.82
2023-01-17T06:40:16.394Z,1.82
2023-01-17T06:41:16.899Z,1.84
2023-01-17T06:42:16.836Z,1.81
2023-01-17T06:43:16.360Z,1.78
2023-01-17T06:44:16.862Z,1.77
2023-01-17T06:45:16.367Z,1.71
2023-01-17T06:46:16.901Z,1.74
2023-01-17T06:47:16.473Z,1.75
2023-01-17T06:48:16.973Z,1.71
2023-01-17T06:49:16.513Z,1.74
2023-01-17T06:50:17.020Z,1.74
2023-01-17T06:51:16.531Z,1.73
2023-01-17T06:52:16.351Z,1.73
2023-01-17T06:53:16.861Z,1.70
2023-01-17T06:54:16.355Z,1.70
2023-01-17T06:55:16.863Z,1.69
2023-01-17T06:56:16.421Z,1.69
2023-01-17T06:57:16.932Z,1.71
2023-01-17T06:58:16.441Z,1.71
2023-01-17T06:59:16.926Z,1.73
2023-01-17T07:00:16.453Z,1.74
2023-01-17T07:01:17.039Z,1.71
2023-01-17T07:02:16.436Z,1.69
2023-01-17T07:03:16.926Z,1.66
2023-01-17T07:04:16.415Z,1.64
2023-01-17T07:05:16.923Z,1.67
2023-01-17T07:06:16.454Z,1.64
2023-01-17T07:07:16.954Z,1.57
2023-01-17T07:08:16.496Z,1.59
2023-01-17T07:09:16.983Z,1.60
2023-01-17T07:10:16.486Z,1.59
2023-01-17T07:11:16.998Z,1.54
2023-01-17T07:12:16.449Z,1.56
2023-01-17T07:13:16.986Z,1.52
2023-01-17T07:14:16.499Z,1.49
2023-01-17T07:15:17.073Z,1.50
2023-01-17T07:16:16.589Z,1.50
2023-01-17T07:17:17.250Z,1.46
2023-01-17T07:18:16.749Z,1.47
2023-01-17T07:19:17.264Z,1.46
2023-01-17T07:20:16.753Z,1.43
2023-01-17T07:21:17.230Z,1.47
2023-01-17T07:22:16.700Z,1.47
2023-01-17T07:23:17.197Z,1.49
2023-01-17T07:24:16.706Z,1.43
2023-01-17T07:25:17.216Z,1.39
2023-01-17T07:26:16.727Z,1.42
2023-01-17T07:27:17.284Z,1.36
2023-01-17T07:28:16.827Z,1.36
2023-01-17T07:29:16.307Z,1.36
2023-01-17T07:30:16.855Z,1.36
2023-01-17T07:31:16.385Z,1.33
2023-01-17T07:32:16.727Z,1.31
2023-01-17T07:33:17.212Z,1.31
2023-01-17T07:34:16.708Z,1.26
2023-01-17T07:35:17.215Z,1.31
2023-01-17T07:36:16.734Z,1.29
2023-01-17T07:37:17.266Z,1.29
2023-01-17T07:38:16.790Z,1.32
2023-01-17T07:39:16.331Z,1.29
2023-01-17T07:40:16.831Z,1.28
2023-01-17T07:41:16.342Z,1.33
2023-01-17T07:42:16.374Z,1.38
2023-01-17T07:43:16.942Z,1.40
2023-01-17T07:44:16.474Z,1.50
2023-01-17T07:45:17.018Z,1.49
2023-01-17T07:46:16.566Z,1.49
2023-01-17T07:47:17.169Z,1.52
2023-01-17T07:48:16.634Z,1.53
2023-01-17T07:49:17.120Z,1.49
2023-01-17T07:50:16.637Z,1.49
2023-01-17T07:51:17.136Z,1.53
2023-01-17T07:52:18.111Z,1.57
2023-01-17T07:53:16.831Z,1.59
2023-01-17T07:54:16.355Z,1.54
2023-01-17T07:55:16.858Z,1.52
2023-01-17T07:56:16.379Z,1.53
2023-01-17T07:57:16.951Z,1.53
2023-01-17T07:58:16.465Z,1.64
2023-01-17T07:59:17.017Z,1.66
2023-01-17T08:00:16.505Z,1.70
2023-01-17T08:01:17.004Z,1.69
2023-01-17T08:02:16.820Z,1.82
2023-01-17T08:03:16.341Z,1.88
2023-01-17T08:04:16.860Z,1.92
2023-01-17T08:05:16.388Z,1.91
2023-01-17T08:06:16.918Z,1.91
2023-01-17T08:07:16.443Z,1.99
2023-01-17T08:08:17.841Z,2.10
2023-01-17T08:09:16.366Z,2.05
2023-01-17T08:10:16.872Z,2.09
2023-01-17T08:11:16.371Z,2.13
2023-01-17T08:12:16.473Z,2.15
2023-01-17T08:13:16.967Z,2.17
2023-01-17T08:14:16.441Z,2.19
2023-01-17T08:15:16.943Z,2.37
2023-01-17T08:16:16.499Z,2.43
2023-01-17T08:17:17.070Z,2.59
2023-01-17T08:18:16.571Z,2.63
2023-01-17T08:19:17.205Z,2.71
2023-01-17T08:20:16.760Z,2.78
2023-01-17T08:21:17.261Z,2.89
2023-01-17T08:22:16.954Z,2.89
2023-01-17T08:23:16.458Z,2.92
2023-01-17T08:24:16.983Z,3.00
2023-01-17T08:25:16.528Z,3.13
2023-01-17T08:26:16.996Z,3.13
2023-01-17T08:27:16.523Z,3.26
2023-01-17T08:28:17.035Z,3.23
2023-01-17T08:29:16.576Z,3.41
2023-01-17T08:30:17.080Z,3.40
2023-01-17T08:31:16.640Z,3.34
2023-01-17T08:32:16.568Z,3.40
2023-01-17T08:33:17.074Z,3.40
2023-01-17T08:34:16.618Z,3.39
2023-01-17T08:35:17.174Z,3.39
2023-01-17T08:36:16.705Z,3.39
2023-01-17T08:37:17.209Z,3.27
2023-01-17T08:38:16.720Z,3.15
2023-01-17T08:39:17.221Z,3.13
2023-01-17T08:40:17.170Z,3.13
2023-01-17T08:41:16.744Z,3.16
2023-01-17T08:42:16.769Z,3.06
2023-01-17T08:43:17.254Z,3.07
2023-01-17T08:44:16.734Z,3.19
2023-01-17T08:45:17.305Z,3.22
2023-01-17T08:46:16.798Z,3.23
2023-01-17T08:47:16.318Z,3.23
2023-01-17T08:48:16.867Z,3.16
2023-01-17T08:49:16.367Z,3.05
2023-01-17T08:50:16.864Z,3.05
2023-01-17T08:51:16.355Z,3.12
2023-01-17T08:52:17.029Z,3.26
2023-01-17T08:53:16.528Z,3.37
2023-01-17T08:54:17.028Z,3.54
2023-01-17T08:55:16.527Z,3.61
2023-01-17T08:56:17.037Z,3.71
2023-01-17T08:57:16.581Z,3.75
2023-01-17T08:58:17.089Z,3.68
2023-01-17T08:59:16.605Z,3.74
2023-01-17T09:00:17.117Z,3.79
2023-01-17T09:01:16.745Z,3.78
2023-01-17T09:02:16.580Z,3.88
2023-01-17T09:03:17.073Z,3.92
2023-01-17T09:04:16.654Z,4.14
2023-01-17T09:05:17.192Z,4.13
2023-01-17T09:06:16.722Z,4.00
2023-01-17T09:07:17.222Z,3.99
2023-01-17T09:08:16.751Z,4.21
2023-01-17T09:09:17.305Z,4.52
2023-01-17T09:10:16.824Z,4.52
2023-01-17T09:11:16.341Z,4.51
2023-01-17T09:12:17.024Z,4.42
2023-01-17T09:13:16.576Z,4.58
2023-01-17T09:14:17.117Z,4.85
2023-01-17T09:15:16.625Z,4.79
2023-01-17T09:16:17.149Z,4.67
2023-01-17T09:17:16.759Z,4.72
2023-01-17T09:18:17.260Z,4.69
2023-01-17T09:19:16.748Z,4.65
2023-01-17T09:20:17.267Z,4.64
2023-01-17T09:21:16.793Z,4.79
2023-01-17T09:22:16.709Z,4.76
2023-01-17T09:23:17.212Z,4.71
2023-01-17T09:24:16.706Z,4.51
2023-01-17T09:25:17.255Z,4.57
2023-01-17T09:26:16.762Z,4.57
2023-01-17T09:27:17.318Z,4.40
2023-01-17T09:28:16.824Z,4.38
2023-01-17T09:29:16.350Z,4.45
2023-01-17T09:30:16.870Z,4.52
2023-01-17T09:31:17.543Z,4.35
2023-01-17T09:32:16.877Z,4.35
2023-01-17T09:33:16.585Z,4.48
2023-01-17T09:34:17.127Z,4.65
2023-01-17T09:35:16.681Z,4.58
2023-01-17T09:36:17.207Z,4.47
2023-01-17T09:37:16.722Z,4.28
2023-01-17T09:38:17.205Z,4.34
2023-01-17T09:39:16.756Z,4.45
2023-01-17T09:40:17.281Z,4.41
2023-01-17T09:41:16.789Z,4.27
2023-01-17T09:42:16.364Z,4.14
2023-01-17T09:43:16.876Z,4.09
2023-01-17T09:44:16.407Z,3.90
2023-01-17T09:45:16.935Z,3.96
2023-01-17T09:46:16.505Z,3.97
2023-01-17T09:47:17.077Z,4.03
2023-01-17T09:48:16.670Z,4.05
2023-01-17T09:49:17.176Z,4.06
2023-01-17T09:50:16.689Z,4.07
2023-01-17T09:51:17.209Z,4.09
2023-01-17T09:52:16.671Z,4.18
2023-01-17T09:53:17.178Z,4.25
2023-01-17T09:54:16.686Z,4.06
2023-01-17T09:55:17.190Z,3.93
2023-01-17T09:56:16.670Z,3.97
2023-01-17T09:57:17.184Z,3.96
2023-01-17T09:58:16.691Z,3.97
2023-01-17T09:59:18.861Z,4.10
2023-01-17T10:00:16.660Z,4.10
2023-01-17T10:01:17.320Z,4.10
2023-01-17T10:02:16.874Z,4.16
2023-01-17T10:03:16.871Z,4.12
2023-01-17T10:04:16.803Z,4.34
2023-01-17T10:05:16.462Z,4.48
2023-01-17T10:06:16.987Z,4.47
2023-01-17T10:07:16.490Z,4.51
2023-01-17T10:08:17.005Z,4.45
2023-01-17T10:09:16.480Z,4.54
2023-01-17T10:10:16.988Z,4.61
2023-01-17T10:11:16.488Z,4.41
2023-01-17T10:12:17.106Z,4.38
2023-01-17T10:13:16.822Z,4.42
2023-01-17T10:14:16.363Z,4.59
2023-01-17T10:15:16.898Z,4.31
2023-01-17T10:16:16.406Z,4.27
2023-01-17T10:17:16.969Z,4.40
2023-01-17T10:18:25.337Z,4.44
2023-01-17T10:19:16.849Z,4.58
2023-01-17T10:20:16.399Z,4.67
2023-01-17T10:21:16.915Z,4.64
2023-01-17T10:22:16.366Z,4.57
2023-01-17T10:23:16.864Z,4.44
2023-01-17T10:24:16.522Z,4.37
2023-01-17T10:25:17.094Z,4.40
2023-01-17T10:26:16.572Z,4.44
2023-01-17T10:27:17.085Z,4.41
2023-01-17T10:28:16.613Z,4.64
2023-01-17T10:29:18.125Z,4.82
2023-01-17T10:30:16.390Z,4.82
2023-01-17T10:31:16.922Z,4.80
2023-01-17T10:32:16.825Z,4.67
2023-01-17T10:33:16.367Z,4.67
2023-01-17T10:34:16.885Z,4.55
2023-01-17T10:35:16.395Z,4.52
2023-01-17T10:36:16.931Z,4.58
2023-01-17T10:37:16.473Z,4.59
2023-01-17T10:38:17.111Z,4.59
2023-01-17T10:39:16.621Z,4.31
2023-01-17T10:40:17.195Z,4.20
2023-01-17T10:41:16.706Z,4.12
2023-01-17T10:42:16.353Z,4.21
2023-01-17T10:43:16.858Z,4.27
2023-01-17T10:44:16.392Z,4.35
2023-01-17T10:45:16.910Z,4.34
2023-01-17T10:46:16.457Z,4.34
2023-01-17T10:47:17.076Z,4.48
2023-01-17T10:48:16.605Z,4.47
2023-01-17T10:49:17.088Z,4.44
2023-01-17T10:50:16.607Z,4.47
2023-01-17T10:51:17.079Z,4.50
2023-01-17T10:52:16.414Z,4.37
2023-01-17T10:53:16.917Z,4.42
2023-01-17T10:54:16.424Z,4.48
2023-01-17T10:55:16.952Z,4.65
2023-01-17T10:56:16.462Z,4.67
2023-01-17T10:57:16.984Z,4.64
2023-01-17T10:58:16.570Z,4.59
2023-01-17T10:59:17.065Z,4.57
2023-01-17T11:00:16.598Z,4.58
2023-01-17T11:01:17.230Z,4.65
2023-01-17T11:02:16.560Z,4.69
2023-01-17T11:03:17.238Z,4.73
2023-01-17T11:04:16.787Z,4.73
2023-01-17T11:05:17.329Z,4.68
2023-01-17T11:06:16.804Z,4.71
2023-01-17T11:07:17.340Z,4.78
2023-01-17T11:08:16.865Z,4.71
2023-01-17T11:09:16.379Z,4.75
2023-01-17T11:10:16.873Z,4.71
2023-01-17T11:11:16.388Z,4.67
2023-01-17T11:12:16.826Z,4.51
2023-01-17T11:13:16.335Z,4.44
2023-01-17T11:14:16.825Z,4.14
2023-01-17T11:15:16.307Z,4.13
2023-01-17T11:16:16.787Z,4.12
2023-01-17T11:17:17.267Z,4.12
2023-01-17T11:18:16.766Z,4.13
2023-01-17T11:19:17.274Z,4.28
2023-01-17T11:20:16.774Z,4.37
2023-01-17T11:21:16.351Z,4.51
2023-01-17T11:22:16.804Z,4.47
2023-01-17T11:23:17.331Z,4.54
2023-01-17T11:24:16.873Z,4.67
2023-01-17T11:25:16.381Z,4.58
2023-01-17T11:26:16.892Z,4.57
2023-01-17T11:27:16.402Z,4.62
2023-01-17T11:28:16.909Z,4.52
2023-01-17T11:29:16.455Z,4.41
2023-01-17T11:30:17.072Z,4.51
2023-01-17T11:31:16.839Z,4.61
2023-01-17T11:32:16.710Z,4.72
2023-01-17T11:33:17.226Z,4.78
2023-01-17T11:34:16.722Z,4.90
2023-01-17T11:35:17.269Z,4.90
2023-01-17T11:36:16.787Z,4.97
2023-01-17T11:37:17.277Z,4.95
2023-01-17T11:38:16.793Z,4.78
2023-01-17T11:39:17.285Z,4.90
2023-01-17T11:40:16.793Z,4.96
2023-01-17T11:41:17.290Z,5.10
2023-01-17T11:42:16.792Z,5.14
2023-01-17T11:43:17.286Z,5.08
2023-01-17T11:44:16.793Z,5.21
2023-01-17T11:45:17.330Z,5.53
2023-01-17T11:46:16.915Z,5.62
2023-01-17T11:47:16.680Z,5.34
2023-01-17T11:48:17.185Z,5.31
2023-01-17T11:49:16.665Z,5.28
2023-01-17T11:50:17.159Z,5.39
2023-01-17T11:51:16.650Z,5.58
2023-01-17T11:52:17.291Z,5.70
2023-01-17T11:53:16.795Z,5.76
2023-01-17T11:54:16.332Z,5.59
2023-01-17T11:55:16.819Z,5.55
2023-01-17T11:56:16.330Z,5.61
2023-01-17T11:57:16.812Z,5.79
2023-01-17T11:58:16.344Z,5.70
2023-01-17T11:59:16.835Z,5.66
2023-01-17T12:00:16.445Z,5.62
2023-01-17T12:01:17.094Z,5.83
2023-01-17T12:02:17.135Z,5.80
2023-01-17T12:03:16.621Z,5.82
2023-01-17T12:04:17.110Z,5.73
2023-01-17T12:05:16.686Z,5.45
2023-01-17T12:06:16.363Z,5.45
2023-01-17T12:07:16.880Z,5.55
2023-01-17T12:08:16.391Z,5.39
2023-01-17T12:09:16.883Z,5.34
2023-01-17T12:10:16.389Z,5.25
2023-01-17T12:11:17.034Z,5.11
2023-01-17T12:12:16.393Z,5.31
2023-01-17T12:13:16.883Z,5.42
2023-01-17T12:14:16.428Z,5.30
2023-01-17T12:15:16.962Z,5.31
2023-01-17T12:16:16.481Z,5.28
2023-01-17T12:17:17.087Z,5.27
2023-01-17T12:18:16.607Z,5.35
2023-01-17T12:19:17.096Z,5.37
2023-01-17T12:20:16.660Z,5.20
2023-01-17T12:21:17.176Z,5.11
2023-01-17T12:22:16.489Z,5.14
2023-01-17T12:23:17.009Z,5.15
2023-01-17T12:24:16.545Z,5.21
2023-01-17T12:25:17.036Z,5.30
2023-01-17T12:26:16.542Z,5.35
2023-01-17T12:27:17.040Z,5.38
2023-01-17T12:28:16.574Z,5.39
2023-01-17T12:29:17.106Z,5.43
2023-01-17T12:30:16.659Z,5.48
2023-01-17T12:31:17.185Z,5.48
2023-01-17T12:32:16.958Z,5.34
2023-01-17T12:33:16.459Z,5.30
2023-01-17T12:34:16.954Z,5.20
2023-01-17T12:35:16.470Z,5.23
2023-01-17T12:36:16.991Z,5.21
2023-01-17T12:37:16.514Z,5.15
2023-01-17T12:38:27.615Z,5.14
2023-01-17T12:39:17.287Z,5.08
2023-01-17T12:40:16.878Z,5.04
2023-01-17T12:41:16.411Z,4.97
2023-01-17T12:42:17.087Z,5.00
2023-01-17T12:43:16.611Z,5.00
2023-01-17T12:44:17.108Z,4.90
2023-01-17T12:45:16.732Z,4.85
2023-01-17T12:46:17.293Z,4.82
2023-01-17T12:47:16.851Z,4.93
2023-01-17T12:48:16.350Z,5.02
2023-01-17T12:49:16.846Z,4.99
2023-01-17T12:50:16.378Z,4.95
2023-01-17T12:51:16.913Z,4.92
2023-01-17T12:52:17.255Z,4.79
2023-01-17T12:53:16.778Z,4.79
2023-01-17T12:54:16.302Z,4.75
2023-01-17T12:55:16.810Z,4.72
2023-01-17T12:56:16.313Z,4.79
2023-01-17T12:57:16.805Z,4.79
2023-01-17T12:58:16.297Z,4.87
2023-01-17T12:59:16.779Z,4.93
2023-01-17T13:00:17.286Z,4.87
2023-01-17T13:01:16.917Z,4.87
2023-01-17T13:02:16.459Z,4.86
2023-01-17T13:03:17.108Z,4.99
2023-01-17T13:04:16.630Z,5.04
2023-01-17T13:05:17.371Z,5.10
2023-01-17T13:06:16.886Z,5.13
2023-01-17T13:07:16.461Z,5.20
2023-01-17T13:08:16.994Z,5.25
2023-01-17T13:09:16.501Z,5.21
2023-01-17T13:10:17.024Z,5.17
2023-01-17T13:11:16.515Z,5.23
2023-01-17T13:12:17.042Z,5.27
2023-01-17T13:13:16.587Z,5.28
2023-01-17T13:14:17.091Z,5.13
2023-01-17T13:15:16.589Z,5.06
2023-01-17T13:16:17.178Z,5.07
2023-01-17T13:17:16.792Z,5.03
2023-01-17T13:18:17.342Z,5.15